Time;durP1;ratioP1;P1;durP2;ratioP2;P2;SDS_P1;SDS_P2;PMS_P1;PMS_P2;Temp;Humidity;BMP_temperature;BMP_pressure;BME280_temperature;BME280_humidity;BME280_pressure;Samples;Min_cycle;Max_cycle;Signal;HPM_P1;HPM_P2
2022/11/23 08:41:07;;;;;;;7.70;1.80;;;5.60;99.90;;;;;;5781135;23;20893;-83
2022/11/23 08:43:34;;;;;;;2.35;1.13;;;5.70;99.90;;;;;;4941124;28;20042;-82
2022/11/23 08:46:02;;;;;;;4.95;1.23;;;5.70;99.90;;;;;;4980311;28;20082;-79
2022/11/23 08:48:34;;;;;;;5.72;1.05;;;5.80;99.90;;;;;;4975977;28;20578;-78
2022/11/23 08:51:01;;;;;;;5.78;0.93;;;5.90;99.90;;;;;;4976867;28;20050;-79
2022/11/23 08:53:28;;;;;;;5.45;1.02;;;5.90;99.90;;;;;;4982985;28;20058;-81
2022/11/23 08:55:54;;;;;;;4.45;1.73;;;6.00;99.90;;;;;;4990405;28;20064;-79
2022/11/23 08:58:21;;;;;;;5.85;1.33;;;6.10;99.90;;;;;;5000660;28;20054;-78
2022/11/23 09:00:48;;;;;;;8.93;1.27;;;6.10;99.90;;;;;;4999051;28;20054;-79
2022/11/23 09:03:14;;;;;;;3.70;1.20;;;6.20;99.90;;;;;;4999659;28;20551;-80
2022/11/23 09:05:41;;;;;;;5.75;1.40;;;6.20;99.90;;;;;;4993567;28;20396;-80
2022/11/23 09:08:08;;;;;;;3.05;0.90;;;6.30;99.90;;;;;;4999907;28;20434;-79
2022/11/23 09:10:35;;;;;;;6.10;1.50;;;6.40;99.90;;;;;;4993123;28;20847;-79
2022/11/23 09:13:02;;;;;;;2.08;1.00;;;6.50;99.90;;;;;;4992672;28;20054;-80
2022/11/23 09:15:29;;;;;;;5.70;1.30;;;6.50;99.90;;;;;;4994939;28;20419;-80
2022/11/23 09:17:56;;;;;;;2.63;1.73;;;6.60;99.90;;;;;;4994248;28;20051;-80
2022/11/23 09:20:23;;;;;;;4.95;0.98;;;6.70;99.90;;;;;;4999570;28;20038;-79
2022/11/23 09:22:54;;;;;;;5.60;1.10;;;6.80;99.90;;;;;;4999548;28;20054;-79
2022/11/23 09:25:22;;;;;;;5.50;1.00;;;6.90;99.90;;;;;;4998952;28;20074;-79
2022/11/23 09:27:57;;;;;;;2.13;0.90;;;6.90;99.90;;;;;;4993934;28;20043;-79
2022/11/23 09:30:24;;;;;;;3.47;0.95;;;7.00;99.90;;;;;;4995860;28;20243;-79
2022/11/23 09:32:51;;;;;;;2.08;0.90;;;7.10;99.90;;;;;;4997834;28;20047;-79
2022/11/23 09:35:18;;;;;;;1.83;0.93;;;7.10;99.90;;;;;;4999717;28;20057;-79
2022/11/23 09:37:44;;;;;;;1.25;0.73;;;7.20;99.90;;;;;;4991141;28;20451;-79
2022/11/23 09:40:18;;;;;;;1.60;0.95;;;7.30;99.90;;;;;;4997526;28;20046;-79
2022/11/23 09:42:45;;;;;;;4.30;0.93;;;7.30;99.90;;;;;;4992462;28;20046;-79
2022/11/23 09:45:32;;;;;;;1.83;0.70;;;7.40;99.90;;;;;;4992981;28;20530;-79
2022/11/23 09:48:21;;;;;;;1.23;0.70;;;7.50;99.90;;;;;;4994222;28;20047;-80
2022/11/23 09:50:59;;;;;;;2.08;0.82;;;7.60;99.90;;;;;;5000799;28;20054;-78
2022/11/23 09:53:33;;;;;;;2.30;0.57;;;7.70;99.90;;;;;;5005897;28;20054;-79
2022/11/23 09:56:00;;;;;;;1.52;0.80;;;7.80;99.90;;;;;;4999837;28;20077;-80
2022/11/23 09:58:35;;;;;;;2.45;0.70;;;7.90;99.90;;;;;;4995084;28;20066;-78
2022/11/23 10:01:03;;;;;;;2.47;0.93;;;8.00;99.90;;;;;;4997640;28;20038;-79
2022/11/23 10:03:38;;;;;;;1.75;0.60;;;8.00;99.90;;;;;;4992055;28;20519;-79
2022/11/23 10:06:26;;;;;;;0.95;0.55;;;8.10;99.90;;;;;;4992075;28;20046;-79
2022/11/23 10:09:23;;;;;;;1.25;0.82;;;8.10;99.90;;;;;;4995740;28;20054;-79
2022/11/23 10:12:21;;;;;;;4.32;1.48;;;8.10;99.90;;;;;;4989527;28;20051;-80
2022/11/23 10:14:47;;;;;;;2.38;0.70;;;8.20;99.90;;;;;;4991971;28;20058;-79
2022/11/23 10:17:27;;;;;;;0.95;0.60;;;8.20;99.90;;;;;;4995116;28;20065;-80
2022/11/23 10:20:06;;;;;;;10.68;1.15;;;8.30;99.90;;;;;;4990173;28;20057;-79
2022/11/23 10:22:39;;;;;;;2.17;0.68;;;8.30;99.90;;;;;;4993816;28;20065;-79
2022/11/23 10:25:19;;;;;;;1.35;0.60;;;8.40;99.90;;;;;;4995221;28;20125;-79
2022/11/23 10:27:49;;;;;;;0.98;0.77;;;8.40;99.90;;;;;;4988087;28;20055;-79
2022/11/23 10:30:18;;;;;;;2.05;1.13;;;8.50;99.90;;;;;;4986953;28;20443;-79
2022/11/23 10:33:01;;;;;;;1.02;0.68;;;8.50;99.90;;;;;;4998275;28;20566;-79
2022/11/23 10:35:31;;;;;;;1.55;0.70;;;8.50;99.90;;;;;;4991574;28;20050;-80
2022/11/23 10:38:15;;;;;;;2.28;0.70;;;8.50;99.90;;;;;;4998506;28;20449;-79
2022/11/23 10:40:52;;;;;;;1.80;0.80;;;8.60;99.90;;;;;;4997188;28;20042;-79
2022/11/23 10:43:26;;;;;;;1.40;0.70;;;8.60;99.90;;;;;;4996649;28;20061;-79
2022/11/23 10:46:31;;;;;;;3.22;0.80;;;8.60;99.90;;;;;;4999984;28;20051;-79
2022/11/23 10:49:13;;;;;;;1.85;0.50;;;8.70;99.90;;;;;;4999625;28;20432;-81
2022/11/23 10:51:47;;;;;;;0.82;0.60;;;8.70;99.90;;;;;;4998696;28;20070;-81
2022/11/23 10:54:24;;;;;;;0.80;0.50;;;8.80;99.90;;;;;;5001601;28;20054;-80
2022/11/23 10:56:52;;;;;;;0.70;0.60;;;8.80;99.90;;;;;;5001643;28;20048;-80
2022/11/23 10:59:31;;;;;;;1.60;0.75;;;8.90;99.90;;;;;;5003035;28;20046;-81
2022/11/23 11:02:13;;;;;;;2.10;0.60;;;8.90;99.90;;;;;;5002551;28;20051;-80
2022/11/23 11:04:40;;;;;;;2.90;0.77;;;9.00;99.90;;;;;;4998694;28;20515;-79
2022/11/23 11:07:28;;;;;;;0.88;0.45;;;9.00;99.90;;;;;;5001196;28;20046;-81
2022/11/23 11:10:00;;;;;;;1.30;0.55;;;9.10;99.90;;;;;;5000428;28;20057;-80
2022/11/23 11:12:29;;;;;;;1.67;0.45;;;9.20;99.90;;;;;;5008706;28;20054;-81
2022/11/23 11:15:16;;;;;;;0.85;0.50;;;9.10;99.90;;;;;;4999451;28;20046;-80
2022/11/23 11:17:42;;;;;;;2.83;0.52;;;9.20;99.90;;;;;;4997098;28;20054;-80
2022/11/23 11:20:31;;;;;;;0.45;0.40;;;9.20;99.90;;;;;;5006764;28;20324;-80
2022/11/23 11:23:01;;;;;;;1.50;0.40;;;9.20;99.90;;;;;;5000666;28;20046;-81
2022/11/23 11:25:35;;;;;;;1.63;0.57;;;9.20;99.90;;;;;;4996885;28;20109;-81
2022/11/23 11:28:16;;;;;;;0.65;0.50;;;9.20;99.90;;;;;;4997874;28;20065;-81
2022/11/23 11:31:09;;;;;;;1.67;0.52;;;9.30;99.90;;;;;;5004105;28;20058;-80
2022/11/23 11:33:43;;;;;;;1.60;0.60;;;9.30;99.90;;;;;;4989903;28;20050;-81
2022/11/23 11:36:12;;;;;;;1.58;0.77;;;9.30;99.90;;;;;;4996622;28;20405;-80
2022/11/23 11:38:41;;;;;;;2.00;0.85;;;9.30;99.90;;;;;;4998750;28;20057;-82
2022/11/23 11:41:23;;;;;;;1.80;0.63;;;9.40;99.90;;;;;;4998257;28;20047;-80
2022/11/23 11:44:08;;;;;;;3.42;0.80;;;9.40;99.90;;;;;;4997955;28;20044;-81
2022/11/23 11:46:41;;;;;;;1.30;0.70;;;9.40;99.90;;;;;;4995547;28;20069;-81
2022/11/23 11:49:31;;;;;;;2.03;0.70;;;9.50;99.90;;;;;;4998117;28;20050;-79
2022/11/23 11:52:09;;;;;;;0.63;0.40;;;9.60;99.90;;;;;;4994583;28;20086;-80
2022/11/23 11:54:50;;;;;;;1.85;0.40;;;9.70;99.90;;;;;;5004262;28;20061;-81
2022/11/23 11:57:26;;;;;;;2.08;0.73;;;9.70;99.90;;;;;;4998188;28;20400;-80
2022/11/23 11:59:56;;;;;;;1.70;0.80;;;9.70;99.90;;;;;;4994455;28;20058;-81
2022/11/23 12:02:32;;;;;;;1.77;0.68;;;9.80;99.90;;;;;;5003292;28;20046;-79
2022/11/23 12:05:18;;;;;;;0.85;0.68;;;9.80;99.90;;;;;;4996899;28;20043;-80
2022/11/23 12:07:57;;;;;;;1.00;0.68;;;9.80;99.90;;;;;;4990568;28;20051;-80
2022/11/23 12:10:46;;;;;;;0.82;0.70;;;9.80;99.90;;;;;;4998585;28;20054;-79
2022/11/23 12:13:17;;;;;;;0.98;0.70;;;9.90;99.90;;;;;;4997835;28;20046;-80
2022/11/23 12:15:53;;;;;;;1.80;0.63;;;9.90;99.90;;;;;;4999883;28;20166;-80
2022/11/23 12:18:37;;;;;;;1.10;0.60;;;10.00;99.90;;;;;;5001985;28;20061;-80
2022/11/23 12:21:25;;;;;;;0.90;0.45;;;10.20;99.90;;;;;;4993649;28;20053;-80
2022/11/23 12:24:06;;;;;;;0.77;0.50;;;10.40;99.90;;;;;;4983457;28;20050;-80
2022/11/23 12:27:10;;;;;;;3.35;0.68;;;10.40;99.90;;;;;;4996424;28;20042;-80
2022/11/23 12:29:41;;;;;;;1.85;0.77;;;10.40;99.90;;;;;;4999219;28;20069;-80
2022/11/23 12:32:18;;;;;;;0.60;0.52;;;10.40;99.90;;;;;;4997349;28;20056;-79
2022/11/23 12:34:51;;;;;;;0.50;0.45;;;10.40;99.90;;;;;;4997094;28;20163;-80
2022/11/23 12:37:46;;;;;;;1.05;0.70;;;10.40;99.90;;;;;;5000615;28;20426;-80
2022/11/23 12:40:31;;;;;;;1.95;0.82;;;10.40;99.90;;;;;;4991647;28;20125;-80
2022/11/23 12:43:12;;;;;;;1.65;0.70;;;10.40;99.90;;;;;;5002268;28;20053;-80
2022/11/23 12:46:03;;;;;;;1.45;0.93;;;10.40;99.90;;;;;;4997030;28;20046;-80
2022/11/23 12:48:59;;;;;;;2.17;0.57;;;10.40;99.90;;;;;;5005966;28;20111;-80
2022/11/23 12:51:52;;;;;;;0.98;0.50;;;10.50;99.90;;;;;;4999461;28;20061;-81
2022/11/23 12:54:44;;;;;;;1.73;0.50;;;10.60;99.90;;;;;;5000856;28;20155;-80
2022/11/23 12:57:23;;;;;;;1.95;0.40;;;10.70;99.90;;;;;;5003539;28;20089;-81
2022/11/23 12:59:56;;;;;;;1.02;0.40;;;10.80;99.90;;;;;;5000352;28;20049;-81
2022/11/23 13:02:57;;;;;;;0.40;0.40;;;10.90;99.90;;;;;;4996169;28;20046;-81
2022/11/23 13:05:59;;;;;;;0.73;0.43;;;10.90;99.90;;;;;;4998778;28;20556;-79
2022/11/23 13:08:53;;;;;;;0.52;0.47;;;11.00;99.90;;;;;;4992679;28;20051;-80
2022/11/23 13:11:52;;;;;;;1.67;0.60;;;11.10;99.90;;;;;;4993243;28;20066;-80
2022/11/23 13:14:32;;;;;;;3.50;0.90;;;11.10;99.90;;;;;;5000115;28;20114;-81
2022/11/23 13:17:09;;;;;;;1.95;0.50;;;11.20;99.90;;;;;;4999343;28;20051;-81
2022/11/23 13:20:05;;;;;;;0.65;0.40;;;11.20;99.90;;;;;;4995605;28;20039;-79
2022/11/23 13:22:32;;;;;;;1.73;0.77;;;11.30;99.90;;;;;;5001701;28;20492;-80
2022/11/23 13:25:11;;;;;;;0.80;0.50;;;11.30;99.90;;;;;;4995302;28;20077;-78
2022/11/23 13:27:47;;;;;;;0.75;0.60;;;11.40;99.90;;;;;;4990441;28;20050;-81
2022/11/23 13:30:26;;;;;;;1.02;0.60;;;11.40;99.90;;;;;;4997688;28;20427;-78
2022/11/23 13:33:16;;;;;;;0.80;0.70;;;11.40;99.90;;;;;;4989548;28;20050;-78
2022/11/23 13:35:58;;;;;;;2.78;0.60;;;11.40;99.90;;;;;;4978473;28;20093;-79
2022/11/23 13:38:42;;;;;;;1.33;1.00;;;11.30;99.90;;;;;;4979048;28;20082;-78
2022/11/23 13:41:33;;;;;;;1.67;0.80;;;11.30;99.90;;;;;;4977103;28;20053;-78
2022/11/23 13:44:32;;;;;;;2.50;0.45;;;11.20;99.90;;;;;;4984624;28;20050;-79
2022/11/23 13:47:03;;;;;;;1.75;0.70;;;11.20;99.90;;;;;;4955734;28;20047;-79
2022/11/23 13:49:38;;;;;;;0.75;0.50;;;11.20;99.90;;;;;;4985497;28;20078;-78
2022/11/23 13:52:20;;;;;;;1.23;0.60;;;11.20;99.90;;;;;;4987332;28;20054;-79
2022/11/23 13:55:01;;;;;;;2.53;0.50;;;11.20;99.90;;;;;;4987718;28;20082;-79
2022/11/23 13:57:37;;;;;;;0.98;0.60;;;11.20;99.90;;;;;;4987184;28;20157;-79
2022/11/23 14:00:42;;;;;;;0.57;0.52;;;11.10;99.90;;;;;;4985667;28;20431;-80
2022/11/23 14:03:47;;;;;;;1.58;0.52;;;11.10;99.90;;;;;;4991646;28;20062;-79
2022/11/23 14:06:32;;;;;;;1.02;0.40;;;11.10;99.90;;;;;;4997397;28;20058;-81
2022/11/23 14:09:05;;;;;;;2.05;0.70;;;11.10;99.90;;;;;;4992838;28;20054;-81
2022/11/23 14:11:41;;;;;;;0.80;0.45;;;11.10;99.90;;;;;;4995203;28;20042;-81
2022/11/23 14:14:20;;;;;;;2.75;0.70;;;11.00;99.90;;;;;;4997418;28;20407;-81
2022/11/23 14:17:01;;;;;;;0.73;0.43;;;11.00;99.90;;;;;;4996938;28;20054;-82
2022/11/23 14:19:57;;;;;;;2.20;0.60;;;11.00;99.90;;;;;;4994552;28;20129;-83
2022/11/23 14:22:52;;;;;;;1.85;0.60;;;11.00;99.90;;;;;;4995394;28;20062;-80
2022/11/23 14:25:31;;;;;;;1.75;0.45;;;11.00;99.90;;;;;;5001208;28;20045;-81
2022/11/23 14:28:24;;;;;;;1.67;0.60;;;10.90;99.90;;;;;;4993619;28;20042;-81
2022/11/23 14:31:31;;;;;;;1.30;0.70;;;10.90;99.90;;;;;;4992555;28;20085;-78
2022/11/23 14:34:26;;;;;;;1.38;1.00;;;10.80;99.90;;;;;;4998846;28;20050;-79
2022/11/23 14:36:56;;;;;;;2.60;0.93;;;10.80;99.90;;;;;;4993760;28;20496;-77
2022/11/23 14:39:49;;;;;;;2.30;1.40;;;10.80;99.90;;;;;;4996284;28;20060;-78
2022/11/23 14:42:19;;;;;;;3.17;1.10;;;10.70;99.90;;;;;;4996228;28;20043;-80
2022/11/23 14:44:47;;;;;;;0.85;0.80;;;10.70;99.90;;;;;;4995901;28;20445;-79
2022/11/23 14:47:13;;;;;;;1.40;1.17;;;10.60;99.90;;;;;;4992074;28;20054;-79
2022/11/23 14:49:50;;;;;;;1.88;1.13;;;10.60;99.90;;;;;;4996318;28;20061;-80
2022/11/23 14:52:31;;;;;;;0.98;0.80;;;10.50;99.90;;;;;;4994745;28;20058;-79
2022/11/23 14:55:01;;;;;;;2.38;0.80;;;10.50;99.90;;;;;;4992963;28;20500;-79
2022/11/23 14:57:38;;;;;;;2.50;1.10;;;10.50;99.90;;;;;;4996203;28;20050;-80
2022/11/23 15:00:05;;;;;;;1.00;0.70;;;10.50;99.90;;;;;;4993277;28;20057;-79
2022/11/23 15:02:39;;;;;;;3.08;0.70;;;10.40;99.90;;;;;;5001413;28;20500;-79
2022/11/23 15:05:15;;;;;;;1.67;0.52;;;10.40;99.90;;;;;;4994801;28;20118;-78
2022/11/23 15:07:48;;;;;;;0.68;0.60;;;10.50;99.90;;;;;;4992988;28;20138;-78
2022/11/23 15:10:33;;;;;;;2.08;0.50;;;10.50;99.90;;;;;;4991797;28;20149;-79
2022/11/23 15:12:59;;;;;;;1.08;0.60;;;10.60;99.90;;;;;;4999832;28;20046;-78
2022/11/23 15:15:31;;;;;;;0.40;0.38;;;10.60;99.90;;;;;;4994308;28;20051;-80
2022/11/23 15:18:00;;;;;;;1.75;0.65;;;10.60;99.90;;;;;;4993011;28;20192;-79
2022/11/23 15:20:32;;;;;;;1.07;0.43;;;10.60;99.90;;;;;;4995629;28;20050;-78
2022/11/23 15:23:00;;;;;;;1.92;0.70;;;10.60;99.90;;;;;;4990903;28;20070;-80
2022/11/23 15:25:28;;;;;;;1.00;0.65;;;10.60;99.90;;;;;;4990853;28;20058;-79
2022/11/23 15:27:55;;;;;;;1.10;0.70;;;10.60;99.90;;;;;;4984737;28;20085;-78
2022/11/23 15:30:31;;;;;;;2.45;0.70;;;10.60;99.90;;;;;;4992958;28;20061;-78
2022/11/23 15:33:00;;;;;;;1.52;0.80;;;10.60;99.90;;;;;;4991207;28;20057;-80
2022/11/23 15:35:31;;;;;;;3.17;0.98;;;10.60;99.90;;;;;;4995719;28;20051;-79
2022/11/23 15:38:00;;;;;;;3.67;0.80;;;10.50;99.90;;;;;;4996783;28;20483;-79
2022/11/23 15:40:30;;;;;;;2.30;0.80;;;10.50;99.90;;;;;;4998519;28;20146;-79
2022/11/23 15:42:56;;;;;;;0.60;0.60;;;10.50;99.90;;;;;;4995413;28;20053;-78
2022/11/23 15:45:32;;;;;;;0.90;0.80;;;10.50;99.90;;;;;;4999964;28;20084;-80
2022/11/23 15:48:05;;;;;;;2.90;0.50;;;10.50;99.90;;;;;;4998145;28;20070;-79
2022/11/23 15:50:32;;;;;;;2.25;0.88;;;10.50;99.90;;;;;;4998894;28;20057;-79
2022/11/23 15:53:00;;;;;;;2.13;0.70;;;10.50;99.90;;;;;;4995134;28;20142;-80
2022/11/23 15:55:28;;;;;;;3.00;1.30;;;10.50;99.90;;;;;;4997595;28;20057;-79
2022/11/23 15:57:56;;;;;;;3.75;2.00;;;10.40;99.90;;;;;;4993411;28;20065;-79
2022/11/23 16:00:25;;;;;;;3.13;1.67;;;10.40;99.90;;;;;;4992272;28;20050;-79
2022/11/23 16:02:52;;;;;;;6.53;2.10;;;10.30;99.90;;;;;;4992007;28;20054;-79
2022/11/23 16:05:21;;;;;;;9.30;3.53;;;10.20;99.90;;;;;;5002454;28;20114;-80
2022/11/23 16:08:00;;;;;;;6.13;3.30;;;10.20;99.90;;;;;;4994393;28;20085;-79
2022/11/23 16:10:27;;;;;;;4.32;2.00;;;10.20;99.90;;;;;;4993347;28;20051;-80
2022/11/23 16:12:59;;;;;;;1.27;1.08;;;10.10;99.90;;;;;;4993745;28;20106;-79
2022/11/23 16:15:37;;;;;;;1.92;1.00;;;10.10;99.90;;;;;;5002969;28;20054;-79
2022/11/23 16:18:26;;;;;;;4.80;1.00;;;9.90;99.90;;;;;;4995658;28;20538;-79
2022/11/23 16:20:56;;;;;;;2.20;0.77;;;9.80;99.90;;;;;;4994494;28;20047;-81
2022/11/23 16:23:26;;;;;;;2.20;0.85;;;9.80;99.90;;;;;;4995306;28;20133;-79
2022/11/23 16:26:00;;;;;;;3.92;1.02;;;9.70;99.90;;;;;;4994840;28;20110;-79
2022/11/23 16:28:36;;;;;;;2.55;1.05;;;9.60;99.90;;;;;;4993978;28;20046;-80
2022/11/23 16:31:03;;;;;;;3.35;1.10;;;9.60;99.90;;;;;;4994071;28;20046;-79
2022/11/23 16:33:30;;;;;;;2.08;1.17;;;9.60;99.90;;;;;;4996902;28;20117;-80
2022/11/23 16:35:56;;;;;;;1.30;1.10;;;9.50;99.90;;;;;;4994125;28;20046;-80
2022/11/23 16:38:23;;;;;;;3.80;0.80;;;9.40;99.90;;;;;;5004299;28;20061;-79
2022/11/23 16:40:50;;;;;;;2.92;1.70;;;9.40;99.90;;;;;;5000215;28;20063;-80
2022/11/23 16:43:17;;;;;;;3.20;0.80;;;9.40;99.90;;;;;;4997362;28;20046;-79
2022/11/23 16:45:47;;;;;;;2.15;1.20;;;9.30;99.90;;;;;;4994452;28;20043;-79
2022/11/23 16:48:24;;;;;;;2.75;1.20;;;9.30;99.90;;;;;;5003871;28;20093;-78
2022/11/23 16:50:55;;;;;;;1.70;0.77;;;9.30;99.90;;;;;;4990498;28;20061;-78
2022/11/23 16:53:24;;;;;;;3.50;1.08;;;9.20;99.90;;;;;;4999046;28;20065;-79
2022/11/23 16:55:53;;;;;;;1.38;0.80;;;9.30;99.90;;;;;;5002421;28;20097;-81
2022/11/23 16:58:21;;;;;;;2.83;1.05;;;9.30;99.90;;;;;;5004025;28;20058;-81
2022/11/23 17:00:48;;;;;;;3.78;1.00;;;9.30;99.90;;;;;;4994418;28;20050;-79
2022/11/23 17:03:17;;;;;;;1.95;0.93;;;9.30;99.90;;;;;;4999591;28;20050;-79
2022/11/23 17:05:45;;;;;;;0.70;0.70;;;9.30;99.90;;;;;;5001932;28;20047;-79
2022/11/23 17:08:12;;;;;;;1.33;0.80;;;9.30;99.90;;;;;;4994592;28;20055;-79
2022/11/23 17:10:45;;;;;;;2.88;0.90;;;9.40;99.90;;;;;;4995234;28;20054;-80
2022/11/23 17:13:27;;;;;;;0.85;0.70;;;9.30;99.90;;;;;;4995889;28;20057;-80
2022/11/23 17:15:54;;;;;;;1.15;1.00;;;9.30;99.90;;;;;;4992634;28;20085;-80
2022/11/23 17:18:21;;;;;;;1.40;1.00;;;9.30;99.90;;;;;;4994750;28;20061;-80
2022/11/23 17:20:48;;;;;;;1.58;1.10;;;9.30;99.90;;;;;;4994507;28;20137;-80
2022/11/23 17:23:15;;;;;;;2.55;1.15;;;9.30;99.90;;;;;;4999231;28;20391;-81
2022/11/23 17:25:42;;;;;;;2.53;1.30;;;9.30;99.90;;;;;;4987275;28;20050;-79
2022/11/23 17:28:20;;;;;;;2.50;1.08;;;9.30;99.90;;;;;;4988773;28;20050;-78
2022/11/23 17:30:47;;;;;;;3.05;1.35;;;9.30;99.90;;;;;;4989646;28;20061;-81
2022/11/23 17:33:14;;;;;;;5.13;2.92;;;9.30;99.90;;;;;;4995992;28;20046;-81
2022/11/23 17:35:41;;;;;;;2.33;1.10;;;9.30;99.90;;;;;;4993126;28;20050;-80
2022/11/23 17:38:18;;;;;;;1.20;0.82;;;9.30;99.90;;;;;;4992734;28;20062;-79
2022/11/23 17:40:45;;;;;;;1.98;1.60;;;9.30;99.90;;;;;;4986121;28;20136;-81
2022/11/23 17:43:14;;;;;;;3.47;1.60;;;9.30;99.90;;;;;;4994332;28;20039;-80
2022/11/23 17:45:43;;;;;;;3.65;1.73;;;9.30;99.90;;;;;;4998224;28;20042;-79
2022/11/23 17:48:14;;;;;;;5.65;2.45;;;9.40;99.90;;;;;;4998114;28;20125;-80
2022/11/23 17:50:41;;;;;;;2.35;1.60;;;9.40;99.90;;;;;;4996972;28;20113;-78
2022/11/23 17:53:08;;;;;;;3.20;1.63;;;9.40;99.90;;;;;;4992235;28;20050;-79
2022/11/23 17:55:35;;;;;;;4.95;2.38;;;9.40;99.90;;;;;;4994430;28;20057;-79
2022/11/23 17:58:02;;;;;;;2.92;1.85;;;9.40;99.90;;;;;;4999407;28;20061;-79
2022/11/23 18:00:30;;;;;;;2.70;1.60;;;9.50;99.90;;;;;;4994516;28;20061;-78
2022/11/23 18:02:57;;;;;;;4.50;2.00;;;9.40;99.90;;;;;;4999650;28;20047;-79
2022/11/23 18:05:23;;;;;;;2.83;1.80;;;9.40;99.90;;;;;;4994469;28;20056;-79
2022/11/23 18:07:50;;;;;;;5.45;2.22;;;9.40;99.90;;;;;;4993182;28;20046;-79
2022/11/23 18:10:17;;;;;;;6.13;2.45;;;9.40;99.90;;;;;;4994814;28;20089;-80
2022/11/23 18:12:44;;;;;;;8.88;3.83;;;9.30;99.90;;;;;;4993025;28;20061;-78
2022/11/23 18:15:11;;;;;;;5.57;2.33;;;9.30;99.90;;;;;;5001056;28;20139;-79
2022/11/23 18:17:38;;;;;;;6.18;2.15;;;9.20;99.90;;;;;;4991806;28;20051;-78
2022/11/23 18:20:07;;;;;;;4.15;2.60;;;9.10;99.90;;;;;;4993618;28;20069;-79
2022/11/23 18:22:34;;;;;;;2.65;1.98;;;9.10;99.90;;;;;;4997486;28;20537;-79
2022/11/23 18:25:00;;;;;;;2.60;2.03;;;9.00;99.90;;;;;;4994218;28;20137;-79
2022/11/23 18:27:28;;;;;;;2.72;1.75;;;9.00;99.90;;;;;;4991266;28;20075;-80
2022/11/23 18:29:55;;;;;;;2.95;1.58;;;8.90;99.90;;;;;;4997300;28;20081;-79
2022/11/23 18:32:21;;;;;;;3.85;1.60;;;8.90;99.90;;;;;;4997922;28;20042;-79
2022/11/23 18:34:48;;;;;;;3.30;1.60;;;8.80;99.90;;;;;;5002031;28;20106;-79
2022/11/23 18:37:15;;;;;;;3.85;2.30;;;8.80;99.90;;;;;;4997763;28;20073;-79
2022/11/23 18:39:42;;;;;;;7.68;1.92;;;8.80;99.90;;;;;;4997796;28;20049;-79
2022/11/23 18:42:08;;;;;;;6.75;2.20;;;8.80;99.90;;;;;;4995578;28;20047;-80
2022/11/23 18:44:35;;;;;;;3.42;1.90;;;8.80;99.90;;;;;;4995152;28;20054;-81
2022/11/23 18:47:02;;;;;;;5.80;1.98;;;8.80;99.90;;;;;;4995143;28;20047;-78
2022/11/23 18:49:28;;;;;;;3.80;1.80;;;8.90;99.90;;;;;;4995429;28;20106;-77
2022/11/23 18:51:56;;;;;;;2.97;1.58;;;8.90;99.90;;;;;;4994134;28;20471;-79
2022/11/23 18:54:22;;;;;;;2.35;1.60;;;8.90;99.90;;;;;;4990960;28;20122;-79
2022/11/23 18:56:49;;;;;;;4.20;1.50;;;8.90;99.90;;;;;;4995171;28;20058;-78
2022/11/23 18:59:17;;;;;;;3.97;1.90;;;9.00;99.90;;;;;;4998932;28;20055;-80
2022/11/23 19:02:03;;;;;;;2.72;1.17;;;9.00;99.90;;;;;;4993566;28;20042;-78
2022/11/23 19:04:31;;;;;;;3.88;1.30;;;9.00;99.90;;;;;;4993497;28;20424;-78
2022/11/23 19:06:58;;;;;;;7.55;2.20;;;9.00;99.90;;;;;;4996646;28;20050;-78
2022/11/23 19:09:25;;;;;;;4.60;1.95;;;9.00;99.90;;;;;;4996757;28;20046;-79
2022/11/23 19:11:51;;;;;;;5.80;2.30;;;9.10;99.90;;;;;;4996762;28;20063;-79
2022/11/23 19:14:18;;;;;;;5.50;2.08;;;9.10;99.90;;;;;;4997188;28;20058;-79
2022/11/23 19:16:44;;;;;;;4.10;1.33;;;9.00;99.90;;;;;;4998953;28;20061;-79
2022/11/23 19:19:11;;;;;;;1.23;0.98;;;9.00;99.90;;;;;;4998298;28;20050;-78
2022/11/23 19:21:38;;;;;;;3.40;1.13;;;9.00;99.90;;;;;;4998790;28;20042;-78
2022/11/23 19:24:05;;;;;;;3.53;1.33;;;9.00;99.90;;;;;;5005849;28;20050;-79
2022/11/23 19:26:32;;;;;;;2.30;1.15;;;9.00;99.90;;;;;;4999499;28;20050;-79
2022/11/23 19:28:59;;;;;;;7.80;1.30;;;9.10;99.90;;;;;;4998879;28;20055;-79
2022/11/23 19:31:28;;;;;;;5.78;1.30;;;9.10;99.90;;;;;;4998084;28;20051;-79
2022/11/23 19:33:57;;;;;;;3.88;1.30;;;9.00;99.90;;;;;;4997841;28;20481;-79
2022/11/23 19:36:24;;;;;;;6.32;1.58;;;9.10;99.90;;;;;;4999571;28;20055;-79
2022/11/23 19:38:51;;;;;;;6.05;1.70;;;9.10;99.90;;;;;;5001244;28;20069;-79
2022/11/23 19:41:19;;;;;;;5.53;1.63;;;9.10;99.90;;;;;;4996858;28;20051;-80
2022/11/23 19:43:53;;;;;;;3.75;1.20;;;9.20;99.90;;;;;;4996790;28;20061;-78
2022/11/23 19:46:20;;;;;;;3.22;1.50;;;9.10;99.90;;;;;;4996959;28;20106;-79
2022/11/23 19:48:47;;;;;;;5.13;1.83;;;9.20;99.90;;;;;;4996534;28;20051;-79
2022/11/23 19:51:16;;;;;;;3.88;1.75;;;9.20;99.90;;;;;;4997537;28;20054;-79
2022/11/23 19:53:44;;;;;;;4.47;1.70;;;9.30;99.90;;;;;;4998745;28;20106;-79
2022/11/23 19:56:14;;;;;;;2.00;1.48;;;9.30;99.90;;;;;;5001271;28;20140;-81
2022/11/23 19:58:41;;;;;;;4.25;2.13;;;9.30;99.90;;;;;;4999127;28;20061;-79
2022/11/23 20:01:16;;;;;;;5.85;2.13;;;9.30;99.90;;;;;;5001744;28;20050;-81
2022/11/23 20:03:45;;;;;;;5.70;1.30;;;9.30;99.90;;;;;;5003560;28;20047;-80
2022/11/23 20:06:15;;;;;;;5.13;1.80;;;9.30;99.90;;;;;;5002135;28;20042;-81
2022/11/23 20:08:42;;;;;;;3.70;1.60;;;9.30;99.90;;;;;;5005227;28;20050;-81
2022/11/23 20:11:11;;;;;;;3.80;1.30;;;9.30;99.90;;;;;;4995667;28;20134;-81
2022/11/23 20:13:38;;;;;;;3.50;1.77;;;9.20;99.90;;;;;;4997430;28;20133;-80
2022/11/23 20:16:08;;;;;;;4.50;1.30;;;9.20;99.90;;;;;;4995253;28;20492;-79
2022/11/23 20:18:35;;;;;;;3.43;1.37;;;9.20;99.90;;;;;;4995827;28;20084;-79
2022/11/23 20:21:02;;;;;;;3.63;1.30;;;9.20;99.90;;;;;;5000860;28;20306;-80
2022/11/23 20:23:28;;;;;;;4.57;1.40;;;9.20;99.90;;;;;;4995950;28;20086;-80
2022/11/23 20:25:56;;;;;;;2.75;1.15;;;9.10;99.90;;;;;;4994978;28;20074;-80
2022/11/23 20:28:24;;;;;;;5.13;1.70;;;9.10;99.90;;;;;;4997022;28;20060;-79
2022/11/23 20:30:51;;;;;;;4.60;1.27;;;9.10;99.90;;;;;;4993691;28;20059;-81
2022/11/23 20:33:18;;;;;;;3.05;1.35;;;9.10;99.90;;;;;;4997486;28;20073;-80
2022/11/23 20:35:46;;;;;;;2.20;1.20;;;9.10;99.90;;;;;;4994928;28;20479;-82
2022/11/23 20:38:16;;;;;;;3.28;1.13;;;9.10;99.90;;;;;;4986501;28;20047;-81
2022/11/23 20:40:42;;;;;;;6.63;2.55;;;9.10;99.90;;;;;;4988810;28;20110;-80
2022/11/23 20:43:09;;;;;;;2.22;1.13;;;9.00;99.90;;;;;;4992541;28;20134;-80
2022/11/23 20:45:36;;;;;;;4.60;1.38;;;9.00;99.90;;;;;;4986006;28;20530;-79
2022/11/23 20:48:03;;;;;;;2.90;1.00;;;8.90;99.90;;;;;;4990758;28;20055;-80
2022/11/23 20:50:30;;;;;;;1.88;1.25;;;8.90;99.90;;;;;;5001703;28;20424;-80
2022/11/23 20:53:02;;;;;;;3.03;0.95;;;8.90;99.90;;;;;;5000914;28;20077;-81
2022/11/23 20:55:30;;;;;;;3.00;1.10;;;8.90;99.90;;;;;;5003204;28;20070;-80
2022/11/23 20:57:57;;;;;;;4.32;1.65;;;8.90;99.90;;;;;;4995654;28;20090;-80
2022/11/23 21:00:24;;;;;;;4.00;1.45;;;8.90;99.90;;;;;;5002497;28;20454;-80
2022/11/23 21:02:52;;;;;;;4.50;1.65;;;8.90;99.90;;;;;;4993874;28;20050;-80
2022/11/23 21:05:19;;;;;;;3.90;1.00;;;8.90;99.90;;;;;;4995362;28;20042;-80
2022/11/23 21:07:47;;;;;;;6.32;1.70;;;8.90;99.90;;;;;;4995584;28;20125;-80
2022/11/23 21:15:46;;;;;;;1.48;0.60;;;9.00;99.90;;;;;;4997498;28;20046;-80
2022/11/23 21:18:13;;;;;;;1.60;1.00;;;9.00;99.90;;;;;;4994335;28;20412;-80
2022/11/23 21:20:42;;;;;;;4.93;1.15;;;9.00;99.90;;;;;;4995140;28;20061;-80
2022/11/23 21:23:09;;;;;;;2.85;1.00;;;9.00;99.90;;;;;;5006120;28;20419;-80
2022/11/23 21:25:35;;;;;;;1.15;0.70;;;9.00;99.90;;;;;;5003464;28;20071;-82
2022/11/23 21:28:02;;;;;;;1.23;0.68;;;9.00;99.90;;;;;;4998427;28;20065;-81
2022/11/23 21:30:29;;;;;;;3.40;0.85;;;9.00;99.90;;;;;;5000436;28;20559;-80
2022/11/23 21:32:56;;;;;;;2.90;0.82;;;9.10;99.90;;;;;;4995810;28;20145;-81
2022/11/23 21:35:23;;;;;;;3.35;1.30;;;9.10;99.90;;;;;;5000923;28;20059;-81
2022/11/23 21:37:50;;;;;;;1.52;0.90;;;9.10;99.90;;;;;;4995887;28;20117;-79
2022/11/23 21:40:16;;;;;;;3.08;1.38;;;9.10;99.90;;;;;;4993576;28;20062;-81
2022/11/23 21:42:43;;;;;;;3.00;0.80;;;9.10;99.90;;;;;;5003734;28;20057;-81
2022/11/23 21:45:10;;;;;;;2.33;0.77;;;9.10;99.90;;;;;;4995639;28;20102;-80
2022/11/23 21:47:37;;;;;;;5.28;0.80;;;9.10;99.90;;;;;;4996765;28;20046;-81
2022/11/23 21:50:04;;;;;;;4.57;0.82;;;9.00;99.90;;;;;;4992874;28;20054;-81
2022/11/23 21:52:31;;;;;;;2.05;0.80;;;9.00;99.90;;;;;;5003192;28;20122;-81
2022/11/23 21:54:57;;;;;;;2.20;1.17;;;9.10;99.90;;;;;;4999836;28;20054;-80
2022/11/23 21:57:24;;;;;;;5.07;1.23;;;9.10;99.90;;;;;;4995717;28;20064;-80
2022/11/23 21:59:51;;;;;;;6.22;1.55;;;9.00;99.90;;;;;;4993476;28;20649;-80
2022/11/23 22:02:18;;;;;;;3.58;0.80;;;9.00;99.90;;;;;;4996166;28;20050;-80
2022/11/23 22:04:45;;;;;;;7.30;1.20;;;9.10;99.90;;;;;;5000910;28;20059;-79
2022/11/23 22:07:11;;;;;;;2.42;0.80;;;9.10;99.90;;;;;;5003182;28;20054;-80
2022/11/23 22:09:38;;;;;;;4.05;1.00;;;9.10;99.90;;;;;;4995075;28;20061;-80